Time;durP1;ratioP1;P1;durP2;ratioP2;P2;SDS_P1;SDS_P2;PMS_P1;PMS_P2;Temp;Humidity;BMP_temperature;BMP_pressure;BME280_temperature;BME280_humidity;BME280_pressure;Samples;Min_cycle;Max_cycle;Signal;HPM_P1;HPM_P2
2020/12/04 00:01:13;;;;;;;6.15;3.33;;;;;;;6.20;74.22;96659.06;4444583;32;20100;-72
2020/12/04 00:03:39;;;;;;;5.85;3.33;;;;;;;6.16;74.02;96652.22;4446060;32;20357;-72
2020/12/04 00:06:05;;;;;;;5.65;3.47;;;;;;;6.22;75.54;96655.75;4443304;32;20401;-72
2020/12/04 00:08:30;;;;;;;6.03;3.25;;;;;;;6.18;74.93;96660.81;4443293;32;20527;-71
2020/12/04 00:10:56;;;;;;;4.57;3.08;;;;;;;6.12;75.08;96660.81;4447436;32;20388;-72
2020/12/04 00:13:21;;;;;;;4.93;2.60;;;;;;;6.24;75.58;96661.56;4447914;32;20065;-72
2020/12/04 00:15:47;;;;;;;5.80;2.72;;;;;;;6.40;75.54;96663.59;4445656;32;20073;-72
2020/12/04 00:18:12;;;;;;;5.43;2.83;;;;;;;6.50;74.95;96667.66;4447145;32;20063;-71
2020/12/04 00:20:38;;;;;;;5.70;3.37;;;;;;;6.63;75.21;96662.31;4447778;32;20060;-72
2020/12/04 00:23:04;;;;;;;4.82;2.92;;;;;;;6.63;74.40;96670.69;4448637;32;20378;-73
2020/12/04 00:25:29;;;;;;;3.45;2.25;;;;;;;6.66;74.03;96670.41;4447304;32;20057;-73
2020/12/04 00:27:55;;;;;;;5.15;2.97;;;;;;;6.65;73.51;96670.94;4447110;32;20096;-73
2020/12/04 00:30:21;;;;;;;4.70;3.08;;;;;;;6.76;74.20;96671.69;4446416;32;20163;-72
2020/12/04 00:32:46;;;;;;;4.12;2.62;;;;;;;6.73;73.42;96660.75;4446867;32;20069;-73
2020/12/04 00:35:12;;;;;;;4.10;2.60;;;;;;;6.76;74.14;96656.94;4448738;32;20197;-72
2020/12/04 00:37:38;;;;;;;3.87;2.80;;;;;;;6.69;72.97;96654.69;4447920;32;20038;-73
2020/12/04 00:40:04;;;;;;;4.45;2.72;;;;;;;6.72;74.03;96656.47;4448218;32;20093;-73
2020/12/04 00:42:30;;;;;;;3.42;2.17;;;;;;;6.73;73.89;96653.16;4448781;32;20073;-72
2020/12/04 00:44:55;;;;;;;2.85;2.37;;;;;;;6.75;74.12;96645.00;4445371;32;20073;-72
2020/12/04 00:47:21;;;;;;;3.40;2.33;;;;;;;6.79;73.96;96650.34;4446257;32;20382;-72
2020/12/04 00:49:47;;;;;;;4.97;2.20;;;;;;;6.84;73.98;96649.56;4446263;32;20041;-73
2020/12/04 00:52:13;;;;;;;4.15;1.65;;;;;;;6.93;73.88;96646.50;4468300;26;20061;-72
2020/12/04 00:54:38;;;;;;;3.28;2.10;;;;;;;6.62;72.24;96639.19;4415738;32;20089;-72
2020/12/04 00:57:06;;;;;;;2.53;1.70;;;;;;;6.50;73.31;96626.53;4415245;32;20104;-73
2020/12/04 00:59:32;;;;;;;2.95;1.70;;;;;;;6.56;73.25;96632.87;4418178;32;20063;-72
2020/12/04 01:01:58;;;;;;;3.28;1.40;;;;;;;6.44;74.13;96625.03;4417075;32;20112;-72
2020/12/04 01:04:24;;;;;;;1.30;0.93;;;;;;;6.38;74.10;96615.91;4416194;32;20153;-72
2020/12/04 01:06:49;;;;;;;1.50;1.05;;;;;;;6.24;74.17;96608.56;4402000;32;20042;-72
2020/12/04 01:09:15;;;;;;;1.95;1.00;;;;;;;6.08;74.44;96590.56;4415902;32;20141;-72
2020/12/04 01:11:41;;;;;;;1.58;1.12;;;;;;;6.10;75.24;96591.56;4415718;32;20365;-73
2020/12/04 01:14:06;;;;;;;1.62;1.00;;;;;;;6.04;74.73;96593.59;4415572;32;20034;-73
2020/12/04 01:16:32;;;;;;;2.08;1.30;;;;;;;5.98;75.50;96586.50;4402106;32;20452;-72
2020/12/04 01:18:58;;;;;;;1.95;1.12;;;;;;;5.94;75.94;96586.00;4416425;32;20142;-73
2020/12/04 01:21:23;;;;;;;1.67;1.00;;;;;;;5.76;76.37;96587.22;4416243;32;20073;-72
2020/12/04 01:23:53;;;;;;;1.50;1.02;;;;;;;5.61;76.85;96591.50;4417123;32;20068;-72
2020/12/04 01:26:19;;;;;;;1.80;1.17;;;;;;;5.71;77.43;96590.75;4414605;32;20074;-72
2020/12/04 01:28:45;;;;;;;1.62;1.02;;;;;;;5.68;77.16;96588.25;4416812;32;20133;-73
2020/12/04 01:31:11;;;;;;;1.23;1.10;;;;;;;5.80;76.70;96587.72;4416251;32;20742;-73
2020/12/04 01:33:37;;;;;;;2.87;1.20;;;;;;;5.81;76.98;96580.13;4416343;32;20056;-73
2020/12/04 01:36:03;;;;;;;2.30;1.20;;;;;;;5.94;77.31;96586.00;4417465;32;20097;-72
2020/12/04 01:38:29;;;;;;;2.20;1.17;;;;;;;5.72;76.39;96578.37;4416582;32;20060;-72
2020/12/04 01:41:02;;;;;;;2.10;1.25;;;;;;;5.84;76.46;96579.91;4415329;32;20033;-73
2020/12/04 01:43:29;;;;;;;1.65;1.08;;;;;;;5.83;76.51;96581.16;4417334;32;20089;-73
2020/12/04 01:45:55;;;;;;;2.22;1.00;;;;;;;5.94;76.78;96591.56;4415234;32;20093;-74
2020/12/04 01:48:21;;;;;;;1.83;1.00;;;;;;;5.99;75.99;96583.19;4416652;32;20502;-73
2020/12/04 01:50:50;;;;;;;1.65;0.90;;;;;;;6.14;76.24;96588.53;4415669;32;20481;-73
2020/12/04 01:53:18;;;;;;;1.25;0.95;;;;;;;6.25;76.16;96584.94;4414149;32;20038;-72
2020/12/04 01:55:43;;;;;;;1.65;1.17;;;;;;;6.19;75.48;96573.78;4417686;32;20069;-72
2020/12/04 01:58:11;;;;;;;2.45;1.55;;;;;;;6.18;75.88;96579.88;4415660;32;20129;-74
2020/12/04 02:00:37;;;;;;;2.65;1.37;;;;;;;6.09;75.36;96586.50;4415005;32;21340;-73
2020/12/04 02:03:03;;;;;;;2.45;1.10;;;;;;;6.12;75.71;96594.63;4416088;32;20102;-73
2020/12/04 02:05:29;;;;;;;2.37;1.37;;;;;;;6.13;75.46;96584.97;4414921;32;20155;-73
2020/12/04 02:08:05;;;;;;;2.22;1.25;;;;;;;6.05;74.62;96594.37;4416035;32;20427;-74
2020/12/04 02:10:39;;;;;;;2.22;1.05;;;;;;;6.11;75.43;96581.91;4415618;32;20089;-72
2020/12/04 02:13:06;;;;;;;1.37;0.90;;;;;;;6.18;75.79;96588.25;4415728;32;20164;-73
2020/12/04 02:15:33;;;;;;;2.17;1.02;;;;;;;6.19;75.35;96584.22;4415867;32;20085;-74
2020/12/04 02:18:03;;;;;;;1.20;0.90;;;;;;;6.27;75.59;96579.63;4414416;32;20072;-73
2020/12/04 02:20:32;;;;;;;1.42;0.90;;;;;;;6.01;74.76;96575.09;4414950;32;20185;-72
2020/12/04 02:22:57;;;;;;;1.17;0.95;;;;;;;6.09;75.23;96567.72;4414614;32;20089;-73
2020/12/04 02:25:23;;;;;;;1.83;0.80;;;;;;;6.16;75.62;96582.44;4416509;32;20086;-73
2020/12/04 02:27:49;;;;;;;1.35;0.85;;;;;;;6.15;75.29;96581.66;4415679;32;20046;-74
2020/12/04 02:30:28;;;;;;;0.98;0.55;;;;;;;6.19;75.41;96592.59;4414070;32;20550;-73
2020/12/04 02:32:55;;;;;;;1.00;0.90;;;;;;;6.32;74.65;96587.97;4414060;32;20081;-72
2020/12/04 02:35:21;;;;;;;1.02;0.73;;;;;;;6.31;74.95;96591.28;4414893;32;20081;-74
2020/12/04 02:37:46;;;;;;;1.55;0.80;;;;;;;6.24;75.05;96591.81;4415028;32;20139;-74
2020/12/04 02:40:12;;;;;;;1.23;0.73;;;;;;;6.06;74.88;96585.50;4415196;32;20381;-74
2020/12/04 02:42:41;;;;;;;1.27;0.80;;;;;;;6.14;74.90;96577.38;4413868;32;20066;-74
2020/12/04 02:45:07;;;;;;;0.82;0.77;;;;;;;6.17;74.81;96581.16;4415590;32;20049;-74
2020/12/04 02:47:32;;;;;;;0.90;0.65;;;;;;;6.29;74.49;96577.09;4402905;32;20434;-74
2020/12/04 02:49:58;;;;;;;1.30;0.80;;;;;;;6.36;74.82;96573.78;4415253;32;20130;-72
2020/12/04 02:52:25;;;;;;;1.35;0.90;;;;;;;6.42;74.46;96569.72;4412612;32;20229;-73
2020/12/04 02:54:51;;;;;;;0.80;0.60;;;;;;;6.44;73.87;96567.16;4414030;32;20156;-73
2020/12/04 02:57:17;;;;;;;2.35;0.80;;;;;;;6.54;73.98;96568.41;4414560;32;20402;-73
2020/12/04 02:59:43;;;;;;;2.17;1.10;;;;;;;6.57;74.16;96563.81;4413204;32;20371;-73
2020/12/04 03:02:09;;;;;;;1.77;1.10;;;;;;;6.51;73.58;96571.47;4399996;32;20089;-74
2020/12/04 03:04:36;;;;;;;1.00;0.90;;;;;;;6.51;73.73;96561.06;4413369;32;20105;-73
2020/12/04 03:07:01;;;;;;;1.00;0.90;;;;;;;6.60;73.77;96565.59;4414551;32;20146;-73
2020/12/04 03:09:27;;;;;;;1.70;1.10;;;;;;;6.23;73.61;96556.81;4415482;32;20459;-74
2020/12/04 03:11:54;;;;;;;1.10;0.90;;;;;;;6.31;74.67;96547.38;4413786;32;20080;-74
2020/12/04 03:14:21;;;;;;;1.65;1.10;;;;;;;6.41;74.76;96553.47;4414589;32;20366;-73
2020/12/04 03:16:47;;;;;;;1.40;1.30;;;;;;;6.44;74.10;96560.81;4413368;32;20042;-75
2020/12/04 03:19:13;;;;;;;1.10;1.00;;;;;;;6.32;73.20;96567.69;4414138;32;20077;-74
2020/12/04 03:21:38;;;;;;;3.65;1.10;;;;;;;6.42;73.83;96566.16;4414116;32;20115;-75
2020/12/04 03:24:04;;;;;;;0.85;0.68;;;;;;;6.52;73.47;96567.38;4415519;32;20110;-75
2020/12/04 03:26:30;;;;;;;1.33;1.00;;;;;;;6.52;73.09;96561.78;4415047;32;20093;-73
2020/12/04 03:28:55;;;;;;;1.17;1.08;;;;;;;6.27;73.28;96563.63;4414212;32;20689;-74
2020/12/04 03:31:21;;;;;;;1.20;0.90;;;;;;;6.27;73.72;96560.09;4414029;32;20101;-73
2020/12/04 03:33:47;;;;;;;1.52;1.15;;;;;;;6.31;73.74;96560.56;4414468;32;20046;-74
2020/12/04 03:36:13;;;;;;;1.42;0.73;;;;;;;6.35;73.57;96561.09;4414831;32;20077;-75
2020/12/04 03:38:39;;;;;;;1.00;0.90;;;;;;;6.02;73.20;96548.69;4413816;32;20049;-73
2020/12/04 03:41:04;;;;;;;1.12;1.00;;;;;;;6.13;73.60;96537.53;4414619;32;20073;-74
2020/12/04 03:43:30;;;;;;;1.65;1.00;;;;;;;6.13;73.40;96531.94;4412208;32;20034;-74
2020/12/04 03:45:55;;;;;;;1.10;0.90;;;;;;;6.11;73.66;96522.56;4414510;32;20414;-74
2020/12/04 03:48:21;;;;;;;1.65;1.12;;;;;;;6.17;73.49;96516.97;4413677;32;20504;-74
2020/12/04 03:50:47;;;;;;;1.67;1.12;;;;;;;6.05;73.74;96511.41;4413941;32;20519;-74
2020/12/04 03:53:12;;;;;;;1.65;1.00;;;;;;;6.10;73.24;96513.44;4411794;32;20082;-73
2020/12/04 03:55:38;;;;;;;1.08;0.82;;;;;;;6.14;73.09;96518.75;4400584;32;20464;-75
2020/12/04 03:58:06;;;;;;;1.17;0.90;;;;;;;6.22;72.97;96516.97;4414049;32;20445;-75
2020/12/04 04:00:32;;;;;;;1.30;0.80;;;;;;;6.18;72.56;96526.84;4411785;32;20068;-75
2020/12/04 04:02:57;;;;;;;1.12;0.80;;;;;;;5.94;73.19;96524.63;4412070;32;20078;-74
2020/12/04 04:05:23;;;;;;;1.30;0.93;;;;;;;5.89;72.69;96528.94;4415518;32;20042;-75
2020/12/04 04:07:51;;;;;;;1.35;0.98;;;;;;;5.91;73.08;96528.44;4413685;32;20045;-75
2020/12/04 04:10:17;;;;;;;1.27;1.05;;;;;;;5.91;73.62;96531.97;4414831;32;20108;-75
2020/12/04 04:12:43;;;;;;;1.30;1.15;;;;;;;5.90;73.15;96522.06;4415200;32;20054;-74
2020/12/04 04:15:09;;;;;;;1.52;1.12;;;;;;;5.97;73.85;96527.16;4414021;32;20070;-75
2020/12/04 04:17:34;;;;;;;1.58;1.10;;;;;;;5.76;73.76;96519.53;4413465;32;20038;-74
2020/12/04 04:20:00;;;;;;;1.60;1.08;;;;;;;5.73;74.33;96512.19;4414797;32;20085;-74
2020/12/04 04:22:26;;;;;;;1.30;0.90;;;;;;;5.83;73.48;96511.44;4413569;32;20081;-75
2020/12/04 04:24:51;;;;;;;1.33;1.08;;;;;;;5.83;73.53;96508.66;4413068;32;20031;-75
2020/12/04 04:27:17;;;;;;;1.30;1.20;;;;;;;5.86;73.10;96513.22;4414855;32;20136;-74
2020/12/04 04:29:43;;;;;;;1.30;1.00;;;;;;;5.74;73.82;96517.25;4415185;32;20514;-75
2020/12/04 04:32:08;;;;;;;1.33;1.10;;;;;;;5.89;73.69;96525.37;4411742;32;20429;-74
2020/12/04 04:34:34;;;;;;;2.47;1.20;;;;;;;5.87;73.17;96525.87;4414270;32;20038;-73
2020/12/04 04:37:00;;;;;;;1.27;1.10;;;;;;;5.86;74.30;96526.41;4412354;32;20397;-73
2020/12/04 04:39:26;;;;;;;1.20;1.08;;;;;;;5.87;73.66;96528.66;4411287;32;20030;-75
2020/12/04 04:41:56;;;;;;;0.80;0.80;;;;;;;6.02;73.57;96528.44;4415390;32;20042;-75
2020/12/04 04:44:22;;;;;;;0.80;0.75;;;;;;;6.08;72.79;96518.00;4413055;32;21324;-74
2020/12/04 04:49:45;;;;;;;1.10;1.00;;;;;;;6.48;71.41;96514.62;3994968;31;15154756;-71
2020/12/04 04:52:11;;;;;;;1.20;1.00;;;;;;;6.48;71.41;96514.62;4452345;32;20778;-71
2020/12/04 04:54:42;;;;;;;1.02;0.90;;;;;;;6.00;72.33;96512.19;4447094;32;20406;-73
2020/12/04 04:57:09;;;;;;;1.48;0.93;;;;;;;6.14;72.74;96511.13;4448001;32;20500;-72
2020/12/04 04:59:35;;;;;;;1.00;0.80;;;;;;;6.19;72.53;96504.03;4434223;32;20458;-73
2020/12/04 05:02:00;;;;;;;1.12;0.80;;;;;;;6.23;71.31;96512.91;4445961;32;20091;-71
2020/12/04 05:04:26;;;;;;;1.00;0.80;;;;;;;6.27;71.63;96507.06;4449107;32;20038;-72
2020/12/04 05:06:51;;;;;;;1.48;0.80;;;;;;;6.19;70.89;96503.28;4451067;32;20095;-71
2020/12/04 05:09:25;;;;;;;1.33;0.73;;;;;;;6.31;71.44;96505.50;4447602;32;20406;-72
2020/12/04 05:11:55;;;;;;;1.35;0.93;;;;;;;6.28;71.59;96506.53;4450560;32;20076;-75
2020/12/04 05:14:23;;;;;;;1.60;0.80;;;;;;;6.29;71.08;96512.88;4449956;32;20069;-74
2020/12/04 05:16:54;;;;;;;1.27;1.02;;;;;;;6.25;70.73;96506.78;4450423;32;20064;-74
2020/12/04 05:19:37;;;;;;;2.58;1.10;;;;;;;6.33;71.55;96505.00;4449850;32;20103;-73
2020/12/04 05:22:18;;;;;;;1.42;0.90;;;;;;;6.09;70.90;96509.13;4446502;32;20111;-73
2020/12/04 05:24:45;;;;;;;1.23;0.90;;;;;;;6.19;71.16;96500.50;4449525;32;20088;-73
2020/12/04 05:27:28;;;;;;;1.00;0.90;;;;;;;6.05;71.50;96497.47;4448370;32;20082;-74
2020/12/04 05:29:56;;;;;;;1.08;0.70;;;;;;;6.16;71.95;96507.84;4448363;32;20148;-73
2020/12/04 05:32:23;;;;;;;1.42;0.77;;;;;;;6.23;71.76;96515.72;4452016;32;20029;-73
2020/12/04 05:34:50;;;;;;;0.90;0.70;;;;;;;6.26;72.08;96511.88;4451418;32;20127;-72
2020/12/04 05:37:19;;;;;;;1.17;0.75;;;;;;;6.23;70.87;96504.53;4449218;32;20427;-73
2020/12/04 05:39:48;;;;;;;1.15;0.85;;;;;;;6.19;71.52;96501.22;4450778;32;20468;-74
2020/12/04 05:45:07;;;;;;;1.62;0.77;;;;;;;6.33;70.44;96500.19;3985977;32;15025644;-73
2020/12/04 05:47:37;;;;;;;0.68;0.62;;;;;;;6.02;71.22;96495.69;4438025;32;20384;-74
2020/12/04 05:50:04;;;;;;;0.77;0.60;;;;;;;6.13;71.59;96501.25;4441610;32;20400;-74
2020/12/04 05:52:33;;;;;;;1.50;0.60;;;;;;;6.18;71.13;96494.13;4429207;32;20524;-73
2020/12/04 05:55:00;;;;;;;0.80;0.50;;;;;;;6.14;70.70;96488.81;4421867;32;20316;-74
2020/12/04 05:57:28;;;;;;;0.62;0.60;;;;;;;6.04;70.80;96493.16;4424867;32;20618;-74
2020/12/04 05:59:54;;;;;;;0.70;0.50;;;;;;;6.07;70.81;96492.12;4424127;32;20446;-72
2020/12/04 06:02:20;;;;;;;1.95;0.80;;;;;;;5.99;71.43;96490.38;4423017;32;20096;-73
2020/12/04 06:04:45;;;;;;;1.30;0.90;;;;;;;6.01;71.28;96490.62;4421649;32;20030;-72
2020/12/04 06:07:13;;;;;;;0.60;0.55;;;;;;;6.09;71.04;96486.81;4425869;32;20022;-74
2020/12/04 06:09:41;;;;;;;1.27;0.73;;;;;;;5.93;70.54;96481.25;4423944;32;20033;-74
2020/12/04 06:12:11;;;;;;;1.02;0.80;;;;;;;6.00;70.99;96477.94;4426977;32;20056;-75
2020/12/04 06:14:37;;;;;;;0.90;0.50;;;;;;;6.09;70.72;96477.66;4423948;32;20620;-75
2020/12/04 06:19:41;;;;;;;0.73;0.70;;;;;;;6.60;69.87;96484.59;3984446;32;15024161;-71
2020/12/04 06:30:11;;;;;;;0.75;0.60;;;;;;;6.57;69.35;96482.84;3984638;32;15021382;-72
2020/12/04 06:32:42;;;;;;;1.70;0.75;;;;;;;6.18;69.72;96488.56;4436610;32;20191;-74
2020/12/04 06:35:09;;;;;;;0.50;0.50;;;;;;;6.16;69.77;96485.50;4439645;32;20068;-74
2020/12/04 06:37:39;;;;;;;1.65;0.50;;;;;;;6.10;69.82;96484.75;4432126;32;20069;-74
2020/12/04 06:40:31;;;;;;;0.98;0.55;;;;;;;6.21;70.01;96487.53;4438081;32;20373;-72
2020/12/04 06:42:59;;;;;;;0.60;0.50;;;;;;;6.24;69.34;96492.09;4437398;32;20026;-72
2020/12/04 06:48:20;;;;;;;0.90;0.55;;;;;;;6.57;68.72;96494.78;4003860;31;15015767;-72
2020/12/04 06:50:47;;;;;;;1.87;0.77;;;;;;;6.57;68.72;96494.78;4458540;32;20067;-74
2020/12/04 06:53:14;;;;;;;0.70;0.40;;;;;;;6.05;69.21;96485.56;4443876;32;20130;-75
2020/12/04 06:55:41;;;;;;;0.90;0.55;;;;;;;6.06;69.43;96489.84;4442331;32;20131;-73
2020/12/04 06:58:07;;;;;;;0.55;0.40;;;;;;;6.08;69.29;96490.84;4443445;32;20075;-74
2020/12/04 07:00:34;;;;;;;1.42;0.65;;;;;;;6.04;69.20;96489.59;4440480;32;20605;-75
2020/12/04 07:03:01;;;;;;;0.70;0.60;;;;;;;6.00;69.80;96492.66;4445948;32;20170;-75
2020/12/04 07:05:28;;;;;;;0.70;0.68;;;;;;;6.10;69.20;96493.91;4443854;32;20041;-75
2020/12/04 07:10:38;;;;;;;1.45;0.73;;;;;;;6.11;69.89;96495.41;3986256;32;15022082;-73
2020/12/04 07:13:05;;;;;;;0.80;0.60;;;;;;;5.82;69.59;96495.97;4442543;32;20455;-75
2020/12/04 07:15:32;;;;;;;0.40;0.40;;;;;;;5.96;70.29;96503.31;4440974;32;20046;-74
2020/12/04 07:17:59;;;;;;;1.52;0.50;;;;;;;5.90;69.79;96508.13;4439646;32;20030;-76
2020/12/04 07:20:33;;;;;;;0.93;0.47;;;;;;;5.88;70.29;96512.72;4437851;32;20094;-74
2020/12/04 07:22:59;;;;;;;2.58;1.10;;;;;;;5.93;69.80;96512.69;4439045;32;20088;-75
2020/12/04 07:25:26;;;;;;;0.88;0.43;;;;;;;6.02;70.14;96512.44;4439312;32;20083;-75
2020/12/04 07:27:52;;;;;;;3.33;0.70;;;;;;;5.96;69.86;96508.88;4439932;32;20110;-74
2020/12/04 07:30:19;;;;;;;1.40;0.62;;;;;;;5.78;70.30;96506.62;4439490;32;20092;-75
2020/12/04 07:32:50;;;;;;;1.67;0.75;;;;;;;6.01;70.18;96505.34;4439590;32;20013;-75
2020/12/04 07:35:17;;;;;;;1.15;0.50;;;;;;;6.14;70.08;96505.56;4439890;32;20101;-76
2020/12/04 07:37:43;;;;;;;0.95;0.60;;;;;;;6.03;70.35;96508.38;4435070;32;20121;-75
2020/12/04 07:40:08;;;;;;;1.30;0.52;;;;;;;6.09;69.56;96503.56;4430294;32;20402;-74
2020/12/04 07:42:35;;;;;;;0.65;0.50;;;;;;;5.77;70.15;96509.91;4435428;32;20077;-75
2020/12/04 07:45:01;;;;;;;2.87;0.60;;;;;;;5.60;71.43;96495.97;4438810;32;20061;-75
2020/12/04 07:47:26;;;;;;;1.12;0.82;;;;;;;5.77;71.23;96502.28;4441578;32;20086;-75
2020/12/04 07:49:56;;;;;;;1.48;0.88;;;;;;;5.67;71.18;96495.47;4436840;32;20112;-75
2020/12/04 07:55:02;;;;;;;1.20;0.80;;;;;;;6.06;71.35;96501.00;3981884;32;15022337;-74
2020/12/04 08:00:35;;;;;;;1.98;1.10;;;;;;;6.12;70.79;96510.91;3981861;32;15024498;-75
2020/12/04 08:03:02;;;;;;;1.58;0.95;;;;;;;6.12;70.79;96510.91;4430491;32;20084;-75
2020/12/04 08:05:28;;;;;;;0.75;0.75;;;;;;;5.52;72.22;96511.69;4429541;32;20429;-76
2020/12/04 08:07:54;;;;;;;1.42;1.02;;;;;;;5.33;72.18;96501.53;4432613;32;20066;-76
2020/12/04 08:10:21;;;;;;;1.05;0.85;;;;;;;5.32;73.11;96498.00;4432946;32;20386;-74
2020/12/04 08:12:50;;;;;;;3.72;0.68;;;;;;;5.46;72.64;96499.75;4432374;32;20052;-76
2020/12/04 08:15:18;;;;;;;2.10;1.15;;;;;;;5.65;72.01;96503.56;4431700;32;20034;-76
2020/12/04 08:17:44;;;;;;;0.60;0.57;;;;;;;5.67;72.00;96505.84;4430553;32;20041;-75
2020/12/04 08:20:18;;;;;;;2.22;0.70;;;;;;;5.70;71.46;96502.81;4432954;32;20060;-75
2020/12/04 08:22:50;;;;;;;1.17;0.60;;;;;;;5.80;71.24;96500.53;4431833;32;20116;-76
2020/12/04 08:25:25;;;;;;;2.62;0.70;;;;;;;5.80;70.58;96504.06;4432312;32;20077;-76
2020/12/04 08:27:52;;;;;;;4.12;0.70;;;;;;;5.85;70.37;96497.75;4435317;32;20107;-75
2020/12/04 08:30:23;;;;;;;1.58;0.85;;;;;;;5.92;70.46;96494.44;4430230;32;20818;-75
2020/12/04 08:35:31;;;;;;;0.82;0.50;;;;;;;6.53;69.14;96491.47;3983306;32;15023587;-72
2020/12/04 08:40:46;;;;;;;0.88;0.57;;;;;;;6.62;67.90;96487.63;3980546;32;15022100;-75
2020/12/04 08:43:27;;;;;;;0.85;0.62;;;;;;;6.62;67.90;96487.63;4429161;32;20120;-76
2020/12/04 08:45:55;;;;;;;0.70;0.40;;;;;;;6.24;68.62;96469.78;4435118;32;20123;-75
2020/12/04 08:48:23;;;;;;;1.27;0.70;;;;;;;6.14;68.19;96474.13;4433966;32;20088;-75
2020/12/04 08:50:53;;;;;;;0.60;0.50;;;;;;;5.97;69.92;96484.53;4436405;32;20042;-73
2020/12/04 08:53:21;;;;;;;3.47;0.70;;;;;;;5.76;69.49;96472.87;4421292;32;20041;-75
2020/12/04 08:55:49;;;;;;;4.43;0.88;;;;;;;5.88;70.48;96476.44;4422448;32;20106;-74
2020/12/04 08:58:16;;;;;;;1.02;0.70;;;;;;;5.92;70.58;96471.34;4422796;32;20100;-73
2020/12/04 09:00:43;;;;;;;0.75;0.50;;;;;;;5.89;71.01;96467.56;4419333;32;20300;-74
2020/12/04 09:03:09;;;;;;;3.65;0.60;;;;;;;6.00;70.75;96455.63;4419566;32;20096;-74
2020/12/04 09:05:35;;;;;;;2.67;0.85;;;;;;;5.84;70.46;96454.41;4421728;32;20078;-73
2020/12/04 09:08:01;;;;;;;1.25;0.77;;;;;;;5.84;70.71;96462.00;4420426;32;20109;-76
2020/12/04 09:10:27;;;;;;;0.82;0.65;;;;;;;5.74;71.44;96453.09;4420798;32;20060;-74
2020/12/04 09:12:55;;;;;;;0.75;0.60;;;;;;;5.72;71.97;96454.91;4418693;32;20144;-72
2020/12/04 09:15:21;;;;;;;1.55;0.70;;;;;;;5.39;72.38;96455.69;4424701;32;20429;-72
2020/12/04 09:17:47;;;;;;;1.00;0.80;;;;;;;5.25;73.69;96453.16;4420452;32;20064;-73
2020/12/04 09:20:14;;;;;;;1.48;1.20;;;;;;;5.15;74.53;96444.28;4418082;32;20425;-75
2020/12/04 09:22:40;;;;;;;2.03;0.80;;;;;;;5.17;75.70;96438.19;4420270;32;20082;-75
2020/12/04 09:25:08;;;;;;;1.05;0.90;;;;;;;5.14;75.70;96442.00;4421543;32;20030;-73
2020/12/04 09:27:35;;;;;;;1.60;1.20;;;;;;;5.05;76.75;96428.31;4417724;32;20539;-74
2020/12/04 09:30:01;;;;;;;1.45;1.00;;;;;;;5.02;76.71;96440.47;4419023;32;20034;-75
2020/12/04 09:32:27;;;;;;;1.77;0.93;;;;;;;5.09;77.71;96437.19;4419871;32;20034;-75
2020/12/04 09:34:53;;;;;;;1.35;1.02;;;;;;;5.04;78.34;96432.38;4416588;32;20050;-76
2020/12/04 09:37:23;;;;;;;1.85;1.10;;;;;;;5.01;78.22;96442.50;4422513;32;20070;-78
2020/12/04 09:39:51;;;;;;;1.50;0.90;;;;;;;4.91;79.01;96435.63;4420731;32;20110;-75
2020/12/04 09:42:18;;;;;;;1.08;0.93;;;;;;;4.95;79.37;96425.03;4418424;32;20094;-75
2020/12/04 09:44:45;;;;;;;2.85;1.10;;;;;;;4.89;78.43;96424.25;4426866;32;20643;-77
2020/12/04 09:47:12;;;;;;;1.45;0.80;;;;;;;4.96;79.25;96423.75;4421085;32;20077;-74
2020/12/04 09:49:38;;;;;;;1.30;1.17;;;;;;;4.84;78.24;96427.00;4416739;32;20110;-75
2020/12/04 09:52:05;;;;;;;1.98;1.23;;;;;;;4.84;79.21;96422.22;4411030;32;20073;-75
2020/12/04 09:54:32;;;;;;;1.35;0.90;;;;;;;4.80;79.70;96413.34;4405373;32;20069;-75
2020/12/04 09:56:58;;;;;;;3.37;0.95;;;;;;;4.87;79.95;96418.44;4409820;32;20043;-73
2020/12/04 09:59:25;;;;;;;1.17;0.60;;;;;;;4.96;80.24;96411.84;4407784;32;20129;-72
2020/12/04 10:01:53;;;;;;;1.00;0.73;;;;;;;4.79;79.02;96416.66;4407888;32;20468;-73
2020/12/04 10:04:20;;;;;;;1.05;0.82;;;;;;;4.89;79.40;96415.91;4409735;32;20519;-70
2020/12/04 10:06:46;;;;;;;1.20;0.60;;;;;;;4.88;79.78;96411.56;4410085;32;20092;-71
2020/12/04 10:09:13;;;;;;;1.55;0.93;;;;;;;4.81;79.37;96400.94;4408720;32;20493;-71
2020/12/04 10:11:39;;;;;;;1.55;0.90;;;;;;;4.80;78.95;96407.03;4408079;32;20022;-74
2020/12/04 10:14:05;;;;;;;1.80;0.80;;;;;;;4.84;79.91;96402.72;4407572;32;20103;-71
2020/12/04 10:16:31;;;;;;;1.10;0.70;;;;;;;4.80;80.12;96399.44;4408388;32;20074;-72
2020/12/04 10:18:58;;;;;;;1.40;0.77;;;;;;;4.86;80.14;96403.00;4411484;32;20042;-72
2020/12/04 10:21:25;;;;;;;2.67;0.70;;;;;;;4.75;78.85;96396.66;4409288;32;20157;-71
2020/12/04 10:23:51;;;;;;;1.58;0.80;;;;;;;4.68;79.22;96400.69;4411408;32;20374;-72
2020/12/04 10:26:17;;;;;;;0.70;0.55;;;;;;;4.48;80.09;96394.56;4411484;32;20371;-72
2020/12/04 10:28:43;;;;;;;6.22;0.85;;;;;;;4.34;80.63;96389.97;4409927;32;20635;-72
2020/12/04 10:31:08;;;;;;;3.17;0.80;;;;;;;4.29;81.99;96390.72;4413064;32;20491;-72
2020/12/04 10:33:34;;;;;;;1.98;0.82;;;;;;;4.38;82.26;96385.69;4411172;32;20141;-74
2020/12/04 10:36:02;;;;;;;1.05;0.80;;;;;;;4.19;81.16;96381.84;4409791;32;20563;-72
2020/12/04 10:38:28;;;;;;;2.50;0.80;;;;;;;4.25;82.09;96385.41;4408283;32;20453;-73
2020/12/04 10:40:54;;;;;;;0.73;0.70;;;;;;;4.27;81.76;96384.91;4405800;32;20062;-73
2020/12/04 10:43:20;;;;;;;0.95;0.60;;;;;;;4.26;81.70;96384.12;4409041;32;20073;-72
2020/12/04 10:45:47;;;;;;;1.40;0.60;;;;;;;4.15;82.54;96384.12;4407035;32;20623;-73
2020/12/04 10:48:12;;;;;;;0.68;0.50;;;;;;;4.12;81.18;96376.75;4406551;32;20014;-74
2020/12/04 10:50:38;;;;;;;0.95;0.60;;;;;;;4.15;81.95;96372.97;4407957;32;22449;-73
2020/12/04 10:53:04;;;;;;;1.15;0.50;;;;;;;4.15;81.39;96375.75;4406258;32;20515;-73
2020/12/04 10:55:29;;;;;;;2.65;0.47;;;;;;;4.08;81.72;96365.09;4406330;32;20065;-74
2020/12/04 10:57:55;;;;;;;0.85;0.40;;;;;;;4.18;82.96;96360.84;4404095;32;20134;-74
2020/12/04 11:00:20;;;;;;;2.40;0.52;;;;;;;4.34;83.17;96359.38;4410490;32;20198;-75
2020/12/04 11:02:46;;;;;;;0.43;0.30;;;;;;;4.53;83.44;96358.41;4407230;32;20176;-75
2020/12/04 11:05:44;;;;;;;0.50;0.37;;;;;;;4.54;82.93;96348.78;4402985;32;20490;-73
2020/12/04 11:07:58;;;;;;;0.85;0.45;;;;;;;4.52;81.59;96353.34;4404656;32;20394;-73
2020/12/04 11:10:24;;;;;;;0.40;0.20;;;;;;;4.65;82.06;96356.38;4409843;32;20060;-73
2020/12/04 11:12:49;;;;;;;1.27;0.40;;;;;;;4.57;80.54;96349.81;4408830;32;20076;-71
2020/12/04 11:15:15;;;;;;;1.30;0.60;;;;;;;4.57;81.33;96353.34;4407997;32;20804;-71
2020/12/04 11:17:41;;;;;;;0.40;0.20;;;;;;;4.64;82.85;96352.09;4409441;32;20879;-73
2020/12/04 11:20:07;;;;;;;2.60;0.47;;;;;;;4.45;81.30;96337.13;4403955;32;20445;-72
2020/12/04 11:22:34;;;;;;;1.58;0.60;;;;;;;4.52;82.39;96331.84;4410331;32;20105;-72
2020/12/04 11:25:01;;;;;;;0.98;0.50;;;;;;;4.66;82.89;96332.88;4406999;32;20018;-72
2020/12/04 11:27:27;;;;;;;3.45;0.60;;;;;;;4.70;82.25;96333.38;4408479;32;20199;-71
2020/12/04 11:29:52;;;;;;;2.37;0.68;;;;;;;4.60;81.36;96323.75;4411030;32;20416;-71
2020/12/04 11:32:18;;;;;;;3.05;0.65;;;;;;;4.55;82.14;96314.13;4408888;32;20474;-73
2020/12/04 11:34:44;;;;;;;1.98;0.60;;;;;;;4.55;81.75;96311.34;4407107;32;20554;-72
2020/12/04 11:37:11;;;;;;;1.75;0.52;;;;;;;4.57;81.33;96314.38;4406139;32;20104;-74
2020/12/04 11:39:40;;;;;;;3.47;0.73;;;;;;;4.50;81.93;96314.09;4390356;32;20085;-74
2020/12/04 11:42:08;;;;;;;3.78;0.95;;;;;;;4.49;82.32;96316.16;4387432;32;20212;-73
2020/12/04 11:44:34;;;;;;;1.83;0.85;;;;;;;4.53;82.98;96315.88;4402629;32;20178;-75
2020/12/04 11:47:01;;;;;;;1.85;0.40;;;;;;;4.41;81.62;96311.56;4396752;32;20417;-74
2020/12/04 11:49:26;;;;;;;2.55;0.65;;;;;;;4.19;82.18;96303.97;4403401;32;20435;-74
2020/12/04 11:51:52;;;;;;;2.08;0.77;;;;;;;4.21;82.85;96303.44;4406479;32;20040;-74
2020/12/04 11:54:18;;;;;;;1.80;0.62;;;;;;;4.18;82.80;96296.87;4406915;32;20057;-76
2020/12/04 11:56:46;;;;;;;1.00;0.45;;;;;;;4.15;82.58;96304.19;4406399;32;20368;-76
2020/12/04 11:59:13;;;;;;;1.17;0.65;;;;;;;4.03;83.04;96293.56;4399419;32;20403;-73
2020/12/04 12:01:38;;;;;;;2.28;0.90;;;;;;;4.00;83.59;96289.00;4407681;32;20111;-75
2020/12/04 12:04:05;;;;;;;1.77;0.70;;;;;;;4.08;83.84;96292.78;4405755;32;20398;-75
2020/12/04 12:06:30;;;;;;;1.65;0.50;;;;;;;4.12;83.45;96290.53;4407057;32;20053;-75
2020/12/04 12:08:57;;;;;;;1.60;0.50;;;;;;;4.18;84.21;96280.94;4409465;32;20486;-75
2020/12/04 12:11:23;;;;;;;2.30;0.40;;;;;;;4.18;83.64;96276.63;4403790;32;20088;-70
2020/12/04 12:13:48;;;;;;;1.62;0.65;;;;;;;4.29;83.95;96276.66;4402456;32;20113;-73